Time;durP1;ratioP1;P1;durP2;ratioP2;P2;SDS_P1;SDS_P2;PMS_P1;PMS_P2;Temp;Humidity;BMP_temperature;BMP_pressure;BME280_temperature;BME280_humidity;BME280_pressure;Samples;Min_cycle;Max_cycle;Signal;HPM_P1;HPM_P2
2021/08/30 00:00:20;;;;;;;43.50;27.37;;;15.80;99.90;;;;;;5071687;28;20209;-60
2021/08/30 00:02:47;;;;;;;50.50;28.37;;;15.80;99.90;;;;;;5071471;28;20225;-60
2021/08/30 00:05:14;;;;;;;45.93;26.90;;;15.70;99.90;;;;;;5071168;28;20262;-61
2021/08/30 00:07:40;;;;;;;48.70;28.33;;;15.70;99.90;;;;;;5071551;28;20613;-61
2021/08/30 00:10:08;;;;;;;45.93;25.97;;;15.70;99.90;;;;;;5071579;28;20205;-60
2021/08/30 00:12:40;;;;;;;41.17;25.43;;;15.70;99.90;;;;;;5071207;28;20229;-60
2021/08/30 00:15:07;;;;;;;47.60;27.23;;;15.70;99.90;;;;;;5071123;28;20201;-60
2021/08/30 00:17:35;;;;;;;43.13;26.97;;;15.70;99.90;;;;;;5071354;28;20262;-60
2021/08/30 00:20:02;;;;;;;44.03;25.70;;;15.70;99.90;;;;;;5071387;28;20255;-61
2021/08/30 00:22:29;;;;;;;39.10;26.47;;;15.70;99.90;;;;;;5074136;28;20224;-61
2021/08/30 00:24:55;;;;;;;39.93;26.00;;;15.80;99.90;;;;;;5074418;28;20758;-60
2021/08/30 00:27:22;;;;;;;38.67;25.03;;;15.80;99.90;;;;;;5074901;28;20201;-60
2021/08/30 00:29:48;;;;;;;41.17;26.60;;;15.80;99.90;;;;;;5074958;28;20269;-60
2021/08/30 00:32:15;;;;;;;41.53;25.90;;;15.80;99.90;;;;;;5074677;28;20304;-60
2021/08/30 00:34:43;;;;;;;41.87;25.53;;;15.80;99.90;;;;;;5074537;28;20277;-60
2021/08/30 00:37:10;;;;;;;41.17;27.10;;;15.70;99.90;;;;;;5068523;28;20209;-62
2021/08/30 00:39:36;;;;;;;43.17;27.83;;;15.60;99.90;;;;;;5073911;28;20208;-62
2021/08/30 00:42:03;;;;;;;43.97;26.70;;;15.60;99.90;;;;;;5074111;28;20274;-61
2021/08/30 00:44:30;;;;;;;48.67;28.53;;;15.60;99.90;;;;;;5074120;28;20702;-61
2021/08/30 00:46:57;;;;;;;45.20;26.83;;;15.60;99.90;;;;;;5073918;28;20612;-62
2021/08/30 00:49:24;;;;;;;43.07;27.13;;;15.60;99.90;;;;;;5074234;28;20274;-61
2021/08/30 00:51:53;;;;;;;43.27;25.87;;;15.60;99.90;;;;;;5073767;28;20208;-61
2021/08/30 00:54:21;;;;;;;44.43;25.13;;;15.70;99.90;;;;;;5074042;28;20209;-61
2021/08/30 00:56:48;;;;;;;44.73;26.50;;;15.60;99.90;;;;;;5073782;28;20209;-61
2021/08/30 00:59:15;;;;;;;42.57;26.43;;;15.60;99.90;;;;;;5073694;28;20221;-60
2021/08/30 01:01:42;;;;;;;43.33;26.33;;;15.60;99.90;;;;;;5073617;28;20201;-61
2021/08/30 01:04:11;;;;;;;42.60;25.63;;;15.60;99.90;;;;;;5073630;28;20649;-61
2021/08/30 01:06:44;;;;;;;43.50;25.53;;;15.50;99.90;;;;;;5073250;28;20201;-61
2021/08/30 01:09:23;;;;;;;42.20;25.83;;;15.60;99.90;;;;;;5073834;28;20197;-61
2021/08/30 01:11:56;;;;;;;40.47;25.03;;;15.50;99.90;;;;;;5073915;28;20211;-61
2021/08/30 01:14:26;;;;;;;46.23;26.27;;;15.50;99.90;;;;;;5073392;28;20227;-60
2021/08/30 01:16:52;;;;;;;43.87;25.87;;;15.50;99.90;;;;;;5073333;28;20204;-60
2021/08/30 01:19:31;;;;;;;38.83;23.70;;;15.50;99.90;;;;;;5073474;28;20278;-61
2021/08/30 01:21:59;;;;;;;37.83;23.90;;;15.40;99.90;;;;;;5073314;28;20779;-62
2021/08/30 01:24:28;;;;;;;37.03;25.00;;;15.40;99.90;;;;;;5073271;28;20209;-62
2021/08/30 01:26:57;;;;;;;40.07;25.50;;;15.40;99.90;;;;;;5072851;28;20213;-62
2021/08/30 01:29:29;;;;;;;41.53;24.00;;;15.40;99.90;;;;;;5072854;28;20201;-61
2021/08/30 01:31:58;;;;;;;39.53;26.63;;;15.40;99.90;;;;;;5073250;28;20296;-61
2021/08/30 01:34:29;;;;;;;44.70;25.60;;;15.40;99.90;;;;;;5073570;28;20258;-61
2021/08/30 01:36:56;;;;;;;40.23;24.07;;;15.40;99.90;;;;;;5073401;28;20729;-61
2021/08/30 01:39:29;;;;;;;36.37;22.67;;;15.40;99.90;;;;;;5073218;28;20302;-61
2021/08/30 01:41:58;;;;;;;36.60;24.13;;;15.40;99.90;;;;;;5073075;28;20598;-61
2021/08/30 01:44:26;;;;;;;36.77;23.93;;;15.40;99.90;;;;;;5073248;28;20205;-61
2021/08/30 01:46:53;;;;;;;39.63;24.87;;;15.30;99.90;;;;;;5073383;28;20673;-61
2021/08/30 01:49:22;;;;;;;36.93;24.03;;;15.30;99.90;;;;;;5072912;28;20695;-61
2021/08/30 01:51:51;;;;;;;38.77;24.30;;;15.30;99.90;;;;;;5073139;28;20217;-61
2021/08/30 01:54:19;;;;;;;39.40;23.80;;;15.30;99.90;;;;;;5072866;28;20205;-61
2021/08/30 01:56:50;;;;;;;35.33;23.87;;;15.30;99.90;;;;;;5072838;28;20240;-61
2021/08/30 02:02:03;;;;;;;37.03;23.90;;;15.30;99.90;;;;;;5072896;28;20298;-62
2021/08/30 02:04:30;;;;;;;39.80;25.17;;;15.30;99.90;;;;;;5072564;28;20270;-61
2021/08/30 02:06:58;;;;;;;39.73;23.70;;;15.30;99.90;;;;;;5072976;28;20630;-62
2021/08/30 02:09:25;;;;;;;37.27;24.30;;;15.20;99.90;;;;;;5072923;28;20326;-61
2021/08/30 02:11:51;;;;;;;36.80;23.93;;;15.20;99.90;;;;;;5072631;28;20208;-61
2021/08/30 02:14:19;;;;;;;37.57;24.80;;;15.20;99.90;;;;;;5072464;28;20267;-62
2021/08/30 02:16:49;;;;;;;36.73;25.00;;;15.20;99.90;;;;;;5072715;28;20216;-62
2021/08/30 02:19:31;;;;;;;38.03;24.97;;;15.20;99.90;;;;;;5072445;28;20759;-62
2021/08/30 02:22:03;;;;;;;37.10;24.17;;;15.20;99.90;;;;;;5072679;28;20229;-61
2021/08/30 02:24:34;;;;;;;35.73;23.03;;;15.20;99.90;;;;;;5072483;28;20200;-61
2021/08/30 02:27:06;;;;;;;36.23;23.83;;;15.20;99.90;;;;;;5072371;28;20617;-61
2021/08/30 02:29:39;;;;;;;37.80;24.83;;;15.10;99.90;;;;;;5072787;28;20205;-61
2021/08/30 02:32:08;;;;;;;34.13;23.57;;;15.10;99.90;;;;;;5072126;28;20233;-62
2021/08/30 02:34:37;;;;;;;33.77;23.77;;;15.10;99.90;;;;;;5072391;28;20200;-61
2021/08/30 02:37:07;;;;;;;41.10;23.53;;;15.20;99.90;;;;;;5072395;28;20200;-61
2021/08/30 02:39:34;;;;;;;35.87;23.93;;;15.20;99.90;;;;;;5072442;28;20225;-61
2021/08/30 02:42:02;;;;;;;36.83;23.90;;;15.10;99.90;;;;;;5072200;28;20233;-61
2021/08/30 02:44:30;;;;;;;32.37;21.73;;;15.20;99.90;;;;;;5071468;28;20625;-61
2021/08/30 02:46:57;;;;;;;31.77;22.30;;;15.20;99.90;;;;;;5072440;28;20265;-61
2021/08/30 02:49:24;;;;;;;38.00;23.30;;;15.20;99.90;;;;;;5072253;28;20273;-61
2021/08/30 02:51:52;;;;;;;33.67;22.13;;;15.20;99.90;;;;;;5072267;28;20623;-61
2021/08/30 02:54:23;;;;;;;33.13;22.30;;;15.20;99.90;;;;;;5071822;28;20259;-62
2021/08/30 02:56:50;;;;;;;33.63;22.00;;;15.20;99.90;;;;;;5071829;28;20209;-62
2021/08/30 02:59:17;;;;;;;34.10;22.53;;;15.20;99.90;;;;;;5072235;28;20282;-62
2021/08/30 03:01:45;;;;;;;36.93;22.90;;;15.10;99.90;;;;;;5072050;28;20200;-61
2021/08/30 03:04:12;;;;;;;38.77;22.53;;;15.10;99.90;;;;;;5071839;28;20258;-61
2021/08/30 03:06:40;;;;;;;34.53;22.60;;;15.10;99.90;;;;;;5071839;28;20234;-61
2021/08/30 03:09:06;;;;;;;38.47;23.10;;;15.10;99.90;;;;;;5071941;28;20250;-61
2021/08/30 03:11:36;;;;;;;34.93;22.67;;;15.10;99.90;;;;;;5071491;28;20282;-61
2021/08/30 03:14:03;;;;;;;38.23;23.00;;;15.20;99.90;;;;;;5071826;28;20290;-62
2021/08/30 03:16:31;;;;;;;31.93;22.30;;;15.20;99.90;;;;;;5071808;28;20230;-62
2021/08/30 03:18:59;;;;;;;44.50;21.97;;;15.10;99.90;;;;;;5072042;28;20220;-61
2021/08/30 03:21:27;;;;;;;40.50;24.43;;;15.10;99.90;;;;;;5071808;28;20208;-61
2021/08/30 03:23:55;;;;;;;37.87;24.03;;;15.10;99.90;;;;;;5071741;28;20401;-62
2021/08/30 03:26:23;;;;;;;36.97;24.83;;;15.10;99.90;;;;;;5071730;28;20665;-62
2021/08/30 03:28:52;;;;;;;39.67;25.27;;;15.20;99.90;;;;;;5071893;28;20205;-63
2021/08/30 03:31:19;;;;;;;38.07;25.13;;;15.10;99.90;;;;;;5071788;28;20262;-62
2021/08/30 03:33:47;;;;;;;35.93;24.00;;;15.10;99.90;;;;;;5071560;28;20221;-62
2021/08/30 03:36:14;;;;;;;37.70;24.70;;;15.20;99.90;;;;;;5071544;28;20670;-63
2021/08/30 03:38:41;;;;;;;37.10;24.10;;;15.10;99.90;;;;;;5071337;28;20638;-63
2021/08/30 03:41:08;;;;;;;38.17;25.13;;;15.10;99.90;;;;;;5071728;28;20201;-63
2021/08/30 03:43:36;;;;;;;40.37;26.27;;;15.10;99.90;;;;;;5071273;28;20229;-63
2021/08/30 03:46:04;;;;;;;43.03;25.70;;;15.10;99.90;;;;;;5071726;28;20623;-62
2021/08/30 03:48:31;;;;;;;41.40;27.60;;;15.10;99.90;;;;;;5071533;28;20654;-63
2021/08/30 03:50:58;;;;;;;42.63;28.40;;;15.10;99.90;;;;;;5071583;28;20201;-63
2021/08/30 03:53:26;;;;;;;39.03;27.13;;;15.10;99.90;;;;;;5071179;28;20225;-62
2021/08/30 03:55:53;;;;;;;42.07;27.23;;;15.10;99.90;;;;;;5072132;28;20286;-62
2021/08/30 03:58:20;;;;;;;43.30;28.17;;;15.10;99.90;;;;;;5075159;28;20223;-62
2021/08/30 04:00:48;;;;;;;43.20;28.53;;;15.00;99.90;;;;;;5075244;28;20740;-62
2021/08/30 04:03:17;;;;;;;45.07;27.60;;;15.10;99.90;;;;;;5075148;28;20225;-62
2021/08/30 04:05:46;;;;;;;41.30;28.17;;;15.10;99.90;;;;;;5074820;28;20270;-63
2021/08/30 04:08:13;;;;;;;40.63;26.77;;;15.10;99.90;;;;;;5075223;28;20292;-62
2021/08/30 04:10:40;;;;;;;43.30;27.70;;;15.10;99.90;;;;;;5075028;28;20239;-63
2021/08/30 04:13:07;;;;;;;45.70;27.00;;;15.10;99.90;;;;;;5074913;28;20294;-62
2021/08/30 04:15:33;;;;;;;45.77;29.07;;;15.10;99.90;;;;;;5074839;28;20208;-62
2021/08/30 04:18:00;;;;;;;41.77;27.60;;;15.10;99.90;;;;;;5074858;28;20259;-63
2021/08/30 04:20:28;;;;;;;49.87;28.97;;;15.10;99.90;;;;;;5074607;28;20240;-63
2021/08/30 04:22:55;;;;;;;46.80;28.83;;;15.10;99.90;;;;;;5074924;28;20282;-63
2021/08/30 04:25:22;;;;;;;49.90;31.03;;;15.10;99.90;;;;;;5074859;28;20212;-62
2021/08/30 04:27:48;;;;;;;44.93;28.13;;;15.00;99.90;;;;;;5074789;28;20209;-62
2021/08/30 04:30:15;;;;;;;48.43;30.13;;;15.00;99.90;;;;;;5074839;28;20197;-63
2021/08/30 04:32:42;;;;;;;45.73;30.47;;;15.00;99.90;;;;;;5074537;28;20232;-63
2021/08/30 04:35:09;;;;;;;52.90;30.77;;;15.00;99.90;;;;;;5074459;28;20262;-62
2021/08/30 04:37:37;;;;;;;45.47;28.10;;;15.10;99.90;;;;;;5074622;28;20247;-62
2021/08/30 04:40:05;;;;;;;51.83;30.50;;;15.10;99.90;;;;;;5074576;28;20228;-62
2021/08/30 04:42:32;;;;;;;46.57;28.83;;;15.10;99.90;;;;;;5074415;28;20263;-63
2021/08/30 04:44:59;;;;;;;49.53;30.53;;;15.10;99.90;;;;;;5074381;28;20205;-63
2021/08/30 04:47:25;;;;;;;46.93;28.70;;;15.10;99.90;;;;;;5074159;28;20213;-62
2021/08/30 04:49:52;;;;;;;48.47;30.90;;;15.10;99.90;;;;;;5074527;28;20201;-63
2021/08/30 04:52:18;;;;;;;44.50;28.90;;;15.10;99.90;;;;;;5074330;28;20221;-62
2021/08/30 04:54:46;;;;;;;42.50;28.70;;;15.10;99.90;;;;;;5073986;28;20622;-63
2021/08/30 04:57:13;;;;;;;46.93;29.43;;;15.10;99.90;;;;;;5074340;28;20209;-62
2021/08/30 04:59:39;;;;;;;51.30;30.57;;;15.10;99.90;;;;;;5074080;28;20290;-63
2021/08/30 05:02:06;;;;;;;48.03;29.63;;;15.10;99.90;;;;;;5074069;28;20232;-63
2021/08/30 05:04:33;;;;;;;46.37;28.87;;;15.10;99.90;;;;;;5074024;28;20205;-63
2021/08/30 05:07:00;;;;;;;47.17;30.57;;;15.10;99.90;;;;;;5073767;28;20259;-62
2021/08/30 05:09:26;;;;;;;48.17;31.90;;;15.10;99.90;;;;;;5073990;28;20205;-63
2021/08/30 05:11:54;;;;;;;46.03;29.67;;;15.00;99.90;;;;;;5073873;28;20255;-63
2021/08/30 05:14:21;;;;;;;54.17;33.03;;;15.10;99.90;;;;;;5073663;28;20278;-63
2021/08/30 05:16:48;;;;;;;46.83;31.30;;;15.10;99.90;;;;;;5073907;28;20216;-62
2021/08/30 05:19:15;;;;;;;45.03;29.80;;;15.10;99.90;;;;;;5073624;28;20758;-63
2021/08/30 05:21:41;;;;;;;42.27;29.63;;;15.20;99.90;;;;;;5073649;28;20627;-63
2021/08/30 05:24:08;;;;;;;44.03;29.40;;;15.20;99.90;;;;;;5073563;28;20204;-63
2021/08/30 05:26:35;;;;;;;47.93;30.17;;;15.20;99.90;;;;;;5073603;28;20212;-63
2021/08/30 05:29:04;;;;;;;46.87;27.90;;;15.20;99.90;;;;;;5073526;28;20201;-62
2021/08/30 05:31:30;;;;;;;43.67;30.30;;;15.20;99.90;;;;;;5073421;28;20205;-62
2021/08/30 05:33:58;;;;;;;43.00;28.87;;;15.20;99.90;;;;;;5073418;28;20294;-62
2021/08/30 05:36:25;;;;;;;45.70;29.57;;;15.20;99.90;;;;;;5073443;28;20209;-62
2021/08/30 05:38:52;;;;;;;46.57;30.47;;;15.20;99.90;;;;;;5073329;28;20217;-62
2021/08/30 05:41:19;;;;;;;42.50;28.67;;;15.10;99.90;;;;;;5073383;28;20665;-62
2021/08/30 05:43:45;;;;;;;43.57;28.87;;;15.20;99.90;;;;;;5072876;28;20229;-62
2021/08/30 05:46:16;;;;;;;44.97;28.83;;;15.20;99.90;;;;;;5073061;28;20213;-62
2021/08/30 05:48:43;;;;;;;43.30;28.37;;;15.20;99.90;;;;;;5073622;28;20193;-62
2021/08/30 05:51:10;;;;;;;45.93;30.13;;;15.20;99.90;;;;;;5073102;28;20811;-62
2021/08/30 05:53:36;;;;;;;43.90;30.00;;;15.20;99.90;;;;;;5072749;28;20225;-62
2021/08/30 05:56:03;;;;;;;46.33;30.07;;;15.20;99.90;;;;;;5073004;28;20204;-62
2021/08/30 05:58:29;;;;;;;43.47;29.07;;;15.20;99.90;;;;;;5073006;28;20285;-62
2021/08/30 06:00:56;;;;;;;46.37;31.77;;;15.20;99.90;;;;;;5073060;28;20228;-61
2021/08/30 06:03:24;;;;;;;44.90;30.53;;;15.20;99.90;;;;;;5072752;28;20632;-62
2021/08/30 06:05:51;;;;;;;49.83;31.63;;;15.20;99.90;;;;;;5072782;28;20205;-62
2021/08/30 06:08:18;;;;;;;48.53;31.53;;;15.20;99.90;;;;;;5072646;28;20282;-62
2021/08/30 06:10:44;;;;;;;48.03;31.63;;;15.20;99.90;;;;;;5072548;28;20203;-62
2021/08/30 06:13:11;;;;;;;43.67;27.13;;;15.20;99.90;;;;;;5072527;28;20237;-62
2021/08/30 06:15:38;;;;;;;50.20;31.63;;;15.30;99.90;;;;;;5068773;28;20209;-62
2021/08/30 06:18:04;;;;;;;45.60;31.13;;;15.30;99.90;;;;;;5071326;28;20201;-62
2021/08/30 06:20:32;;;;;;;46.57;30.73;;;15.30;99.90;;;;;;5071504;28;20282;-62
2021/08/30 06:22:59;;;;;;;49.67;31.87;;;15.30;99.90;;;;;;5072282;28;20274;-62
2021/08/30 06:25:26;;;;;;;52.30;32.70;;;15.30;99.90;;;;;;5071994;28;20209;-62
2021/08/30 06:27:52;;;;;;;48.17;31.53;;;15.40;99.90;;;;;;5072528;28;20201;-62
2021/08/30 06:30:19;;;;;;;51.67;32.20;;;15.30;99.90;;;;;;5072479;28;20203;-62
2021/08/30 06:32:46;;;;;;;46.37;30.93;;;15.30;99.90;;;;;;5072666;28;20228;-62
2021/08/30 06:35:13;;;;;;;52.60;33.37;;;15.30;99.90;;;;;;5072388;28;20208;-62
2021/08/30 06:37:42;;;;;;;47.30;32.20;;;15.30;99.90;;;;;;5072488;28;20229;-62
2021/08/30 06:40:10;;;;;;;49.97;31.23;;;15.40;99.90;;;;;;5072835;28;20224;-62
2021/08/30 06:42:38;;;;;;;52.10;31.93;;;15.40;99.90;;;;;;5072398;28;20278;-62
2021/08/30 06:45:05;;;;;;;44.37;30.47;;;15.50;99.90;;;;;;5072600;28;20208;-62
2021/08/30 06:47:32;;;;;;;53.83;32.03;;;15.50;99.90;;;;;;5072251;28;20618;-61
2021/08/30 06:49:59;;;;;;;45.70;30.33;;;15.50;99.90;;;;;;5072232;28;20247;-62
2021/08/30 06:52:26;;;;;;;47.73;31.30;;;15.60;99.90;;;;;;5071956;28;20228;-61
2021/08/30 06:54:54;;;;;;;44.30;29.77;;;15.60;99.90;;;;;;5072519;28;20209;-62
2021/08/30 06:57:20;;;;;;;44.83;29.00;;;15.60;99.90;;;;;;5072185;28;20618;-62
2021/08/30 06:59:47;;;;;;;45.93;30.53;;;15.60;99.90;;;;;;5072238;28;20221;-62
2021/08/30 07:02:13;;;;;;;43.93;30.30;;;15.60;99.90;;;;;;5072110;28;20271;-62
2021/08/30 07:04:40;;;;;;;45.13;29.70;;;15.60;99.90;;;;;;5060529;28;20201;-61
2021/08/30 07:07:07;;;;;;;44.00;28.60;;;15.80;99.90;;;;;;5051324;28;20612;-62
2021/08/30 07:09:33;;;;;;;40.37;28.83;;;15.80;99.90;;;;;;5051681;28;20236;-62
2021/08/30 07:12:01;;;;;;;40.33;28.07;;;15.80;99.90;;;;;;5051444;28;20275;-62
2021/08/30 07:14:28;;;;;;;37.03;24.10;;;15.80;99.90;;;;;;5051035;28;20283;-64
2021/08/30 07:16:54;;;;;;;37.87;27.70;;;15.80;99.90;;;;;;5051647;28;20206;-65
2021/08/30 07:19:21;;;;;;;41.10;28.93;;;15.80;99.90;;;;;;5051169;28;20225;-66
2021/08/30 07:21:48;;;;;;;37.47;28.13;;;15.90;99.90;;;;;;5051545;28;20201;-63
2021/08/30 07:24:15;;;;;;;36.07;26.13;;;15.90;99.90;;;;;;5051468;28;20209;-63
2021/08/30 07:26:41;;;;;;;37.60;27.57;;;16.00;99.90;;;;;;5051407;28;20202;-63
2021/08/30 07:29:09;;;;;;;34.23;24.93;;;16.10;99.90;;;;;;5051808;28;20218;-65
2021/08/30 07:31:37;;;;;;;35.97;26.33;;;16.10;1.00;;;;;;5054874;28;20664;-63
2021/08/30 07:34:04;;;;;;;32.87;25.50;;;16.10;1.00;;;;;;5055165;28;20623;-64
2021/08/30 07:36:30;;;;;;;32.20;24.93;;;16.10;1.00;;;;;;5055717;28;20210;-66
2021/08/30 07:39:00;;;;;;;37.77;26.30;;;16.10;1.00;;;;;;5057002;28;20418;-65
2021/08/30 07:41:27;;;;;;;34.63;23.53;;;16.10;1.00;;;;;;5056828;28;20229;-65
2021/08/30 07:43:53;;;;;;;28.00;20.87;;;16.10;1.00;;;;;;5055340;28;20230;-65
2021/08/30 07:46:22;;;;;;;26.93;22.37;;;16.10;1.00;;;;;;5058092;28;20205;-63
2021/08/30 07:48:49;;;;;;;33.53;23.20;;;16.20;1.00;;;;;;5056288;28;20753;-63
2021/08/30 07:51:16;;;;;;;28.47;22.07;;;16.30;99.90;;;;;;5056057;28;20255;-67
2021/08/30 07:53:43;;;;;;;25.07;20.90;;;16.30;99.90;;;;;;5055056;28;20771;-68
2021/08/30 07:56:11;;;;;;;29.70;22.13;;;16.30;99.90;;;;;;5054993;28;20206;-64
2021/08/30 07:58:37;;;;;;;27.80;22.20;;;16.40;99.90;;;;;;5055151;28;20262;-63
2021/08/30 08:01:04;;;;;;;29.33;20.83;;;16.50;99.90;;;;;;5054728;28;20255;-64
2021/08/30 08:03:32;;;;;;;25.70;19.60;;;16.60;99.90;;;;;;5054956;28;20230;-68
2021/08/30 08:05:59;;;;;;;27.00;22.13;;;16.60;96.30;;;;;;5054693;28;20209;-65
2021/08/30 08:08:26;;;;;;;25.53;20.40;;;16.70;99.90;;;;;;5055076;28;20210;-64
2021/08/30 08:10:53;;;;;;;27.10;21.10;;;16.80;99.90;;;;;;5055006;28;20210;-64
2021/08/30 08:13:26;;;;;;;28.73;20.03;;;16.90;1.00;;;;;;5136059;23;20300;-64
2021/08/30 08:15:53;;;;;;;28.40;22.00;;;16.90;1.00;;;;;;5054272;28;20251;-64
2021/08/30 08:18:19;;;;;;;27.70;21.83;;;16.90;1.00;;;;;;5054919;28;20209;-64
2021/08/30 08:20:48;;;;;;;27.93;21.00;;;16.80;99.90;;;;;;5054529;28;20233;-64
2021/08/30 08:23:14;;;;;;;27.50;20.73;;;16.80;1.00;;;;;;5054656;28;20229;-63
2021/08/30 08:25:41;;;;;;;29.70;21.60;;;16.80;1.00;;;;;;5054403;28;20209;-64
2021/08/30 08:28:08;;;;;;;27.10;22.03;;;16.80;1.00;;;;;;5054598;28;20255;-64
2021/08/30 08:30:35;;;;;;;29.60;21.27;;;16.80;17.40;;;;;;5054433;28;20255;-64
2021/08/30 08:33:15;;;;;;;25.93;21.03;;;16.80;90.10;;;;;;5056537;22;20311;-64
2021/08/30 08:35:42;;;;;;;20.63;17.97;;;16.90;1.00;;;;;;5053902;28;20213;-63
2021/08/30 08:38:11;;;;;;;24.70;18.43;;;16.90;99.90;;;;;;5054564;28;20228;-62
2021/08/30 08:40:38;;;;;;;21.37;17.37;;;17.10;99.90;;;;;;5054319;28;20279;-63
2021/08/30 08:43:11;;;;;;;23.70;17.33;;;17.20;1.00;;;;;;5053412;28;20233;-63
2021/08/30 08:45:38;;;;;;;21.07;16.33;;;17.40;99.90;;;;;;5053917;28;20708;-63
2021/08/30 08:48:05;;;;;;;23.73;16.67;;;17.30;99.90;;;;;;5054392;28;20205;-63
2021/08/30 08:50:32;;;;;;;22.07;17.30;;;17.40;1.00;;;;;;5054112;28;20206;-63
2021/08/30 08:53:03;;;;;;;19.60;15.77;;;17.40;1.00;;;;;;5061459;22;20226;-63
2021/08/30 08:55:34;;;;;;;19.03;16.97;;;17.30;99.90;;;;;;5034057;28;20632;-64
2021/08/30 08:58:03;;;;;;;22.90;17.97;;;17.20;1.00;;;;;;5034683;28;20241;-64
2021/08/30 09:00:30;;;;;;;26.47;17.97;;;17.30;1.00;;;;;;5034079;28;20253;-64
2021/08/30 09:02:57;;;;;;;20.03;17.03;;;17.20;31.40;;;;;;5034110;28;20765;-64
2021/08/30 09:05:25;;;;;;;20.67;16.67;;;17.20;68.00;;;;;;5033732;28;20203;-64
2021/08/30 09:07:52;;;;;;;19.07;16.90;;;17.30;99.90;;;;;;5033690;28;20213;-64
2021/08/30 09:10:23;;;;;;;20.47;13.63;;;17.30;99.90;;;;;;5034123;28;20209;-63
2021/08/30 09:12:51;;;;;;;19.67;15.53;;;17.40;99.90;;;;;;5033893;28;20257;-63
2021/08/30 09:15:20;;;;;;;20.73;14.97;;;17.50;1.00;;;;;;5033496;28;20234;-63
2021/08/30 09:17:49;;;;;;;19.93;14.87;;;17.50;99.90;;;;;;5033842;28;20260;-63
2021/08/30 09:20:16;;;;;;;16.83;14.53;;;17.50;99.90;;;;;;5033431;28;20258;-63
2021/08/30 09:22:43;;;;;;;20.30;15.13;;;17.40;99.90;;;;;;5033693;28;20238;-63
2021/08/30 09:25:12;;;;;;;20.60;15.53;;;17.50;76.60;;;;;;5033455;28;20264;-63
2021/08/30 09:27:41;;;;;;;19.13;15.57;;;17.50;1.00;;;;;;5033723;28;20268;-63
2021/08/30 09:30:12;;;;;;;19.47;15.40;;;17.60;1.00;;;;;;5033337;28;20228;-64
2021/08/30 09:32:41;;;;;;;19.80;15.53;;;17.60;99.90;;;;;;5033401;28;20223;-64
2021/08/30 09:35:09;;;;;;;18.77;15.90;;;17.50;99.90;;;;;;5032850;28;20206;-64
2021/08/30 09:37:39;;;;;;;21.60;16.67;;;17.50;1.00;;;;;;5033722;28;20254;-64
2021/08/30 09:40:08;;;;;;;19.17;17.00;;;17.40;1.00;;;;;;5033262;28;20256;-64
2021/08/30 09:42:35;;;;;;;20.60;16.10;;;17.30;99.90;;;;;;5033335;28;20222;-63
2021/08/30 09:45:11;;;;;;;20.07;16.70;;;17.20;75.00;;;;;;5033470;28;20683;-64
2021/08/30 09:47:49;;;;;;;22.73;16.30;;;17.30;1.00;;;;;;5033641;28;20196;-64
2021/08/30 09:50:16;;;;;;;21.47;17.03;;;17.40;1.00;;;;;;5033632;28;20202;-64
2021/08/30 09:52:43;;;;;;;19.07;15.77;;;17.50;99.90;;;;;;5032900;28;20242;-64
2021/08/30 09:55:10;;;;;;;19.93;15.60;;;17.60;99.90;;;;;;5032196;28;20206;-64
2021/08/30 09:57:38;;;;;;;20.07;16.93;;;17.80;99.90;;;;;;5033204;28;20206;-64
2021/08/30 10:00:07;;;;;;;20.57;15.93;;;17.90;99.90;;;;;;5033244;28;20297;-64
2021/08/30 10:02:35;;;;;;;20.33;16.77;;;18.10;99.90;;;;;;5033363;28;20222;-65
2021/08/30 10:05:03;;;;;;;18.60;16.60;;;18.10;1.00;;;;;;5032864;28;20241;-64
2021/08/30 10:07:33;;;;;;;21.50;16.57;;;18.10;97.60;;;;;;5033007;28;20242;-64
2021/08/30 10:10:01;;;;;;;21.70;14.97;;;18.10;1.00;;;;;;5033106;28;20237;-64
2021/08/30 10:12:28;;;;;;;20.43;15.97;;;18.00;1.00;;;;;;5032747;28;20230;-64
2021/08/30 10:14:55;;;;;;;21.90;16.40;;;17.90;99.90;;;;;;5032910;28;20588;-64
2021/08/30 10:17:22;;;;;;;18.77;16.10;;;17.90;99.90;;;;;;5033059;28;20210;-64
2021/08/30 10:19:59;;;;;;;19.33;16.00;;;18.00;33.90;;;;;;5032849;28;20210;-64
2021/08/30 10:22:26;;;;;;;21.67;16.13;;;17.90;97.60;;;;;;5032774;28;20237;-65
2021/08/30 10:24:53;;;;;;;20.20;15.30;;;17.90;99.90;;;;;;5032630;28;20206;-64
2021/08/30 10:27:31;;;;;;;18.43;15.93;;;18.00;1.00;;;;;;5032678;28;20688;-64
2021/08/30 10:30:08;;;;;;;19.67;15.30;;;18.20;99.90;;;;;;5032685;28;20313;-64
2021/08/30 10:32:39;;;;;;;16.50;14.70;;;18.30;99.90;;;;;;5032889;28;20226;-64
2021/08/30 10:35:17;;;;;;;17.93;13.10;;;18.70;1.00;;;;;;5032202;28;20232;-64
2021/08/30 10:37:52;;;;;;;16.60;13.10;;;19.00;99.90;;;;;;5032754;28;20206;-63
2021/08/30 10:40:20;;;;;;;17.10;13.53;;;19.00;99.90;;;;;;5031810;28;20279;-63
2021/08/30 10:42:58;;;;;;;16.27;13.70;;;19.00;1.00;;;;;;5032287;28;20788;-63
2021/08/30 10:45:31;;;;;;;17.20;14.00;;;18.90;95.60;;;;;;5032059;28;20206;-63
2021/08/30 10:48:01;;;;;;;14.50;13.00;;;18.60;99.90;;;;;;5032197;28;20260;-63
2021/08/30 10:50:30;;;;;;;19.47;13.57;;;18.50;1.00;;;;;;5032150;28;20202;-63
2021/08/30 10:53:07;;;;;;;14.77;11.70;;;18.60;99.90;;;;;;5032204;28;20241;-63
2021/08/30 10:55:40;;;;;;;18.60;12.70;;;18.70;99.90;;;;;;5031947;28;20206;-63
2021/08/30 10:58:22;;;;;;;17.40;12.90;;;18.70;99.90;;;;;;5032136;28;20210;-63
2021/08/30 11:00:50;;;;;;;14.40;12.30;;;18.80;94.70;;;;;;5030597;28;20256;-63
2021/08/30 11:03:31;;;;;;;15.53;11.80;;;18.80;65.30;;;;;;5032048;28;20225;-63
2021/08/30 11:06:05;;;;;;;15.07;13.23;;;18.70;27.40;;;;;;5031795;28;20232;-64
2021/08/30 11:08:32;;;;;;;14.23;11.60;;;18.70;99.90;;;;;;5032152;28;20293;-64
2021/08/30 11:11:10;;;;;;;16.93;12.53;;;18.80;48.70;;;;;;5033216;28;20210;-63
2021/08/30 11:13:38;;;;;;;15.77;12.47;;;19.00;99.90;;;;;;5031712;28;20283;-63
2021/08/30 11:16:16;;;;;;;14.70;11.40;;;19.20;10.20;;;;;;5032451;28;20210;-63
2021/08/30 11:18:51;;;;;;;15.37;11.60;;;19.30;1.00;;;;;;5032154;28;20206;-63
2021/08/30 11:21:31;;;;;;;13.23;11.07;;;19.10;99.90;;;;;;5031987;28;20210;-63
2021/08/30 11:23:58;;;;;;;22.03;16.83;;;18.90;99.90;;;;;;5031739;28;20280;-63
2021/08/30 11:26:25;;;;;;;12.50;10.10;;;18.80;99.90;;;;;;5031976;28;20609;-63
2021/08/30 11:28:56;;;;;;;13.40;10.40;;;18.60;99.90;;;;;;5032328;28;20211;-63
2021/08/30 11:31:24;;;;;;;14.67;10.73;;;18.60;99.90;;;;;;5032115;28;20624;-63
2021/08/30 11:33:50;;;;;;;12.77;10.23;;;18.90;99.90;;;;;;5031247;28;20654;-63
2021/08/30 11:36:17;;;;;;;11.87;8.73;;;19.20;99.90;;;;;;5032084;28;20210;-63
2021/08/30 11:38:53;;;;;;;11.70;9.80;;;19.30;84.50;;;;;;5032388;28;20721;-63
2021/08/30 11:41:20;;;;;;;12.23;10.13;;;19.40;59.20;;;;;;5032140;28;20268;-63
2021/08/30 11:43:47;;;;;;;13.97;8.97;;;19.50;99.90;;;;;;5031334;28;20340;-64
2021/08/30 11:46:14;;;;;;;13.07;8.87;;;19.50;1.00;;;;;;5031969;28;20252;-64
2021/08/30 11:48:41;;;;;;;12.87;8.93;;;19.30;1.00;;;;;;5032402;28;20202;-63
2021/08/30 11:51:08;;;;;;;10.80;8.37;;;19.30;1.00;;;;;;5031715;28;20616;-63
2021/08/30 11:53:37;;;;;;;10.90;8.80;;;19.30;1.00;;;;;;5031223;28;20230;-63
2021/08/30 11:56:05;;;;;;;9.83;8.37;;;19.50;1.00;;;;;;5031293;28;20256;-63
2021/08/30 11:58:34;;;;;;;14.00;9.50;;;19.70;3.90;;;;;;5031553;28;20210;-64
2021/08/30 12:01:02;;;;;;;12.60;9.13;;;19.80;1.00;;;;;;5031602;28;20226;-63
2021/08/30 12:03:29;;;;;;;13.93;9.23;;;19.80;1.00;;;;;;5031309;28;20280;-64
2021/08/30 12:05:55;;;;;;;15.20;9.70;;;19.80;1.00;;;;;;5031490;28;20210;-63
2021/08/30 12:08:23;;;;;;;11.97;8.97;;;19.60;1.00;;;;;;5031598;28;20684;-63
2021/08/30 12:10:50;;;;;;;11.10;8.83;;;19.70;99.90;;;;;;5031443;28;20679;-64
2021/08/30 12:13:33;;;;;;;13.60;11.07;;;19.80;1.00;;;;;;5031285;28;20780;-63
2021/08/30 12:15:59;;;;;;;10.13;8.60;;;19.70;1.00;;;;;;5031622;28;20206;-63
2021/08/30 12:18:26;;;;;;;12.23;8.83;;;19.70;1.00;;;;;;5028706;28;20356;-63
2021/08/30 12:20:58;;;;;;;13.70;8.77;;;19.70;1.00;;;;;;5034791;28;20248;-64
2021/08/30 12:33:18;;;;;;;12.57;10.03;;;19.70;1.00;;;;;;5089168;27;20928;-62
2021/08/30 12:35:46;;;;;;;9.67;8.13;;;19.30;1.00;;;;;;5069035;28;20240;-63
2021/08/30 12:38:16;;;;;;;10.60;8.63;;;19.10;1.00;;;;;;5068651;28;20208;-64
2021/08/30 12:40:44;;;;;;;12.23;8.30;;;18.90;1.00;;;;;;5068728;28;20212;-62
2021/08/30 12:43:11;;;;;;;13.57;7.90;;;18.80;1.00;;;;;;5068577;28;20229;-63
2021/08/30 12:45:38;;;;;;;11.00;8.80;;;18.80;1.00;;;;;;5068662;28;20196;-64
2021/08/30 12:48:07;;;;;;;11.30;7.60;;;18.90;1.00;;;;;;5068706;28;20205;-62